createdAt,value
2023-02-15T00:01:20.579Z,35.78
2023-02-15T00:04:07.344Z,60.75
2023-02-15T00:06:53.004Z,49.90
2023-02-15T00:09:38.482Z,43.05
2023-02-15T00:12:23.910Z,36.38
2023-02-15T00:15:09.777Z,31.70
2023-02-15T00:17:55.506Z,39.15
2023-02-15T00:20:41.043Z,36.75
2023-02-15T00:23:27.841Z,33.63
2023-02-15T00:26:13.373Z,47.00
2023-02-15T00:29:02.499Z,31.45
2023-02-15T00:31:49.284Z,41.05
2023-02-15T00:34:35.422Z,27.40
2023-02-15T00:37:20.803Z,30.70
2023-02-15T00:40:07.668Z,33.67
2023-02-15T00:42:53.332Z,30.65
2023-02-15T00:45:38.756Z,33.10
2023-02-15T00:48:24.713Z,24.50
2023-02-15T00:51:09.913Z,36.97
2023-02-15T00:53:55.669Z,33.50
2023-02-15T00:56:41.424Z,35.65
2023-02-15T00:59:27.359Z,29.23
2023-02-15T01:02:14.023Z,18.88
2023-02-15T01:04:59.768Z,25.98
2023-02-15T01:07:45.349Z,23.67
2023-02-15T01:10:30.966Z,38.85
2023-02-15T01:13:17.180Z,47.17
2023-02-15T01:16:04.523Z,78.18
2023-02-15T01:18:51.012Z,52.38
2023-02-15T01:21:36.800Z,99.82
2023-02-15T01:24:22.397Z,77.57
2023-02-15T01:27:07.757Z,74.18
2023-02-15T01:29:53.500Z,75.18
2023-02-15T01:32:41.808Z,44.80
2023-02-15T01:35:27.031Z,79.75
2023-02-15T01:38:14.896Z,55.92
2023-02-15T01:41:18.896Z,76.80
2023-02-15T01:44:04.891Z,60.55
2023-02-15T01:46:54.044Z,63.38
2023-02-15T01:49:42.312Z,49.75
2023-02-15T01:52:28.277Z,25.42
2023-02-15T01:55:15.507Z,57.53
2023-02-15T01:58:02.069Z,63.95
2023-02-15T02:00:48.739Z,42.30
2023-02-15T02:03:55.416Z,95.10
2023-02-15T02:06:42.090Z,63.65
2023-02-15T02:09:27.904Z,50.38
2023-02-15T02:12:14.168Z,78.20
2023-02-15T02:15:00.399Z,81.57
2023-02-15T02:17:55.007Z,58.70
2023-02-15T02:20:55.951Z,66.95
2023-02-15T02:24:03.118Z,64.05
2023-02-15T02:27:10.012Z,50.42
2023-02-15T02:30:27.009Z,46.17
2023-02-15T02:33:37.396Z,66.65
2023-02-15T02:36:29.512Z,64.45
2023-02-15T02:39:26.864Z,93.90
2023-02-15T02:42:19.309Z,68.07
2023-02-15T02:45:15.205Z,79.03
2023-02-15T02:48:07.357Z,70.50
2023-02-15T02:50:53.134Z,58.10
2023-02-15T02:53:38.938Z,35.95
2023-02-15T02:56:42.360Z,62.65
2023-02-15T02:59:33.373Z,57.22
2023-02-15T03:02:25.204Z,73.03
2023-02-15T03:05:17.328Z,43.95
2023-02-15T03:08:07.008Z,42.70
2023-02-15T03:13:40.607Z,25.55
2023-02-15T03:16:27.853Z,33.70
2023-02-15T03:19:26.066Z,31.50
2023-02-15T03:22:24.869Z,43.67
2023-02-15T03:25:18.241Z,38.45
2023-02-15T03:28:08.815Z,45.33
2023-02-15T03:30:59.112Z,44.55
2023-02-15T03:34:02.329Z,68.00
2023-02-15T03:37:08.224Z,31.95
2023-02-15T03:40:30.846Z,40.22
2023-02-15T03:43:20.310Z,56.38
2023-02-15T03:46:32.976Z,38.20
2023-02-15T03:49:42.862Z,43.08
2023-02-15T03:52:30.928Z,61.33
2023-02-15T03:55:16.229Z,31.85
2023-02-15T03:58:20.310Z,54.00
2023-02-15T04:01:33.153Z,26.95
2023-02-15T04:04:22.285Z,22.77
2023-02-15T04:10:13.154Z,26.55
2023-02-15T04:12:58.577Z,23.33
2023-02-15T04:16:03.288Z,19.23
2023-02-15T04:19:07.837Z,24.00
2023-02-15T04:22:11.986Z,19.33
2023-02-15T04:25:12.800Z,26.08
2023-02-15T04:27:58.469Z,19.98
2023-02-15T04:30:44.043Z,22.80
2023-02-15T04:33:29.481Z,20.95
2023-02-15T04:36:15.053Z,33.75
2023-02-15T04:39:00.591Z,45.67
2023-02-15T04:41:46.987Z,26.02
2023-02-15T04:44:32.758Z,23.35
2023-02-15T04:47:18.549Z,55.67
2023-02-15T04:50:04.800Z,38.08
2023-02-15T04:52:50.344Z,25.98
2023-02-15T04:55:36.015Z,21.83
2023-02-15T04:58:21.536Z,38.63
2023-02-15T05:01:07.107Z,39.60
2023-02-15T05:03:52.701Z,34.72
2023-02-15T05:06:38.103Z,51.13
2023-02-15T05:09:23.678Z,39.10
2023-02-15T05:12:09.254Z,39.42
2023-02-15T05:14:54.580Z,61.20
2023-02-15T05:17:40.668Z,53.58
2023-02-15T05:20:26.208Z,57.03
2023-02-15T05:23:12.062Z,26.90
2023-02-15T05:26:16.095Z,50.30
2023-02-15T05:29:01.584Z,59.20
2023-02-15T05:31:48.411Z,29.80
2023-02-15T05:34:34.384Z,31.58
2023-02-15T05:37:19.748Z,42.55
2023-02-15T05:40:05.835Z,49.15
2023-02-15T05:42:51.285Z,23.27
2023-02-15T05:45:36.753Z,24.67
2023-02-15T05:48:24.185Z,21.48
2023-02-15T05:51:14.200Z,36.88
2023-02-15T05:53:59.903Z,23.50
2023-02-15T05:56:45.610Z,36.95
2023-02-15T05:59:31.201Z,35.67
2023-02-15T06:02:16.826Z,44.00
2023-02-15T06:05:02.452Z,44.42
2023-02-15T06:07:47.961Z,41.92
2023-02-15T06:10:33.489Z,37.67
2023-02-15T06:13:19.266Z,27.20
2023-02-15T06:16:05.844Z,52.45
2023-02-15T06:18:53.703Z,39.22
2023-02-15T06:21:39.315Z,25.00
2023-02-15T06:24:24.859Z,32.97
2023-02-15T06:27:11.108Z,37.00
2023-02-15T06:29:56.582Z,34.20
2023-02-15T06:32:42.210Z,22.33
2023-02-15T06:35:28.460Z,45.05
2023-02-15T06:38:14.300Z,24.00
2023-02-15T06:41:00.216Z,43.60
2023-02-15T06:43:45.744Z,27.38
2023-02-15T06:46:31.290Z,28.27
2023-02-15T06:49:16.783Z,18.20
2023-02-15T06:52:02.368Z,37.45
2023-02-15T06:55:01.250Z,22.92
2023-02-15T06:57:46.701Z,22.67
2023-02-15T07:00:32.322Z,19.73
2023-02-15T07:03:17.794Z,25.98
2023-02-15T07:06:07.036Z,22.30
2023-02-15T07:08:53.037Z,17.75
2023-02-15T07:11:57.017Z,22.15
2023-02-15T07:14:42.318Z,15.45
2023-02-15T07:17:36.130Z,18.55
2023-02-15T07:20:24.028Z,14.82
2023-02-15T07:23:10.110Z,17.65
2023-02-15T07:26:00.502Z,15.32
2023-02-15T07:28:46.258Z,16.98
2023-02-15T07:31:32.109Z,15.65
2023-02-15T07:34:18.028Z,13.55
2023-02-15T07:37:03.904Z,15.25
2023-02-15T07:39:49.909Z,14.45
2023-02-15T07:42:35.331Z,19.13
2023-02-15T07:45:21.119Z,20.17
2023-02-15T07:48:07.425Z,15.73
2023-02-15T07:50:52.652Z,20.23
2023-02-15T07:53:39.480Z,15.40
2023-02-15T07:56:25.078Z,15.75
2023-02-15T07:59:10.423Z,17.50
2023-02-15T08:01:57.359Z,17.02
2023-02-15T08:04:43.291Z,18.10
2023-02-15T08:07:28.772Z,15.15
2023-02-15T08:10:34.237Z,15.57
2023-02-15T08:13:19.716Z,16.73
2023-02-15T08:16:05.826Z,23.20
2023-02-15T08:18:52.991Z,21.00
2023-02-15T08:21:41.371Z,20.00
2023-02-15T08:24:29.325Z,18.25
2023-02-15T08:27:15.060Z,21.58
2023-02-15T08:30:00.546Z,21.15
2023-02-15T08:32:46.030Z,24.17
2023-02-15T08:35:31.555Z,19.45
2023-02-15T08:38:16.791Z,25.83
2023-02-15T08:41:23.662Z,34.00
2023-02-15T08:44:10.476Z,20.05
2023-02-15T08:46:55.798Z,25.50
2023-02-15T08:49:41.597Z,21.23
2023-02-15T08:52:27.176Z,21.98
2023-02-15T08:55:12.646Z,27.67
2023-02-15T08:57:58.776Z,39.85
2023-02-15T09:00:46.553Z,39.55
2023-02-15T09:03:33.122Z,22.00
2023-02-15T09:06:19.103Z,34.33
2023-02-15T09:09:04.911Z,28.02
2023-02-15T09:11:56.815Z,36.33
2023-02-15T09:14:43.057Z,22.92
2023-02-15T09:17:28.742Z,32.83
2023-02-15T09:20:14.054Z,25.27
2023-02-15T09:23:00.029Z,28.83
2023-02-15T09:25:45.666Z,22.05
2023-02-15T09:28:33.344Z,20.08
2023-02-15T09:31:21.582Z,22.08
2023-02-15T09:34:07.273Z,30.70
2023-02-15T09:36:52.851Z,27.77
2023-02-15T09:39:42.199Z,22.63
2023-02-15T09:43:05.804Z,21.53
2023-02-15T09:46:21.080Z,29.55
2023-02-15T09:49:28.135Z,21.38
2023-02-15T09:52:25.473Z,21.20
2023-02-15T09:55:17.717Z,21.42
2023-02-15T09:58:06.369Z,25.88
2023-02-15T10:01:20.717Z,21.23
2023-02-15T10:04:18.156Z,20.75
2023-02-15T10:07:35.862Z,23.85
2023-02-15T10:10:49.394Z,25.38
2023-02-15T10:13:54.396Z,23.25
2023-02-15T10:16:55.004Z,19.50
2023-02-15T10:20:19.002Z,19.25
2023-02-15T10:23:35.580Z,20.48
2023-02-15T10:26:28.162Z,18.75
2023-02-15T10:29:21.328Z,18.77
2023-02-15T10:32:27.451Z,19.48
2023-02-15T10:35:31.637Z,20.73
2023-02-15T10:38:28.629Z,19.33
2023-02-15T10:41:52.787Z,20.50
2023-02-15T10:45:00.312Z,22.27
2023-02-15T10:48:02.871Z,21.70
2023-02-15T10:50:52.292Z,25.60
2023-02-15T10:53:55.996Z,25.97
2023-02-15T10:56:56.509Z,21.88
2023-02-15T11:00:06.222Z,22.67
2023-02-15T11:03:21.022Z,21.38
2023-02-15T11:06:11.788Z,22.33
2023-02-15T11:09:13.964Z,23.48
2023-02-15T11:12:01.492Z,21.95
2023-02-15T11:14:57.849Z,22.23
2023-02-15T11:17:51.668Z,22.40
2023-02-15T11:20:45.013Z,23.15
2023-02-15T11:23:33.053Z,21.90
2023-02-15T11:26:23.471Z,21.63
2023-02-15T11:29:24.096Z,22.40
2023-02-15T11:32:39.578Z,22.50
2023-02-15T11:35:30.380Z,24.27
2023-02-15T11:38:33.166Z,23.17
2023-02-15T11:41:25.184Z,23.23
2023-02-15T11:44:19.339Z,23.33
2023-02-15T11:47:09.688Z,22.10
2023-02-15T11:49:55.564Z,22.25
2023-02-15T11:52:41.147Z,22.35
2023-02-15T11:55:29.479Z,22.42
2023-02-15T11:58:55.209Z,22.55
2023-02-15T12:01:48.141Z,21.60
2023-02-15T12:04:41.591Z,22.85
2023-02-15T12:07:45.019Z,19.67
2023-02-15T12:10:35.660Z,21.33
2023-02-15T12:13:21.783Z,19.08
2023-02-15T12:16:12.667Z,20.58
2023-02-15T12:19:01.070Z,20.48
2023-02-15T12:21:52.149Z,20.00
2023-02-15T12:24:44.672Z,21.10
2023-02-15T12:27:33.146Z,29.42
2023-02-15T12:30:36.931Z,24.02
2023-02-15T12:33:34.026Z,19.23
2023-02-15T12:36:21.148Z,18.83
2023-02-15T12:39:12.846Z,18.50
2023-02-15T12:42:02.911Z,18.80
2023-02-15T12:44:59.761Z,18.27
2023-02-15T12:47:45.936Z,18.60
2023-02-15T12:50:35.250Z,18.63
2023-02-15T12:53:24.500Z,18.83
2023-02-15T12:56:11.388Z,16.92
2023-02-15T12:59:06.658Z,17.02
2023-02-15T13:01:55.685Z,17.90
2023-02-15T13:04:49.838Z,18.05
2023-02-15T13:07:35.385Z,18.75
2023-02-15T13:10:29.403Z,19.55
2023-02-15T13:13:22.975Z,19.17
2023-02-15T13:16:14.840Z,20.60
2023-02-15T13:19:11.379Z,64.60
2023-02-15T13:21:58.462Z,28.13
2023-02-15T13:24:54.720Z,28.60
2023-02-15T13:27:42.271Z,25.85
2023-02-15T13:30:39.160Z,22.75
2023-02-15T13:33:33.491Z,31.60
2023-02-15T13:36:30.452Z,25.38
2023-02-15T13:39:36.414Z,20.40
2023-02-15T13:42:25.272Z,20.35
2023-02-15T13:45:16.623Z,20.23
2023-02-15T13:48:05.304Z,22.55
2023-02-15T13:51:06.096Z,20.17
2023-02-15T13:54:24.273Z,22.55
2023-02-15T13:57:25.117Z,20.35
2023-02-15T14:00:41.660Z,21.67
2023-02-15T14:03:49.343Z,30.65
2023-02-15T14:06:59.537Z,22.30
2023-02-15T14:12:59.260Z,21.65
2023-02-15T14:15:49.794Z,22.42
2023-02-15T14:18:47.838Z,44.03
2023-02-15T14:21:38.204Z,42.33
2023-02-15T14:24:44.216Z,37.22
2023-02-15T14:27:52.937Z,39.53
2023-02-15T14:30:41.693Z,49.90
2023-02-15T14:33:40.950Z,29.53
2023-02-15T14:36:28.958Z,24.08
2023-02-15T14:39:56.595Z,23.70
2023-02-15T14:42:59.671Z,23.92
2023-02-15T14:46:04.239Z,25.15
2023-02-15T14:48:54.170Z,23.80
2023-02-15T14:51:48.818Z,24.92
2023-02-15T14:54:34.515Z,24.15
2023-02-15T14:57:24.263Z,23.58
2023-02-15T15:00:37.881Z,25.55
2023-02-15T15:03:25.587Z,23.73
2023-02-15T15:06:35.431Z,23.92
2023-02-15T15:09:26.426Z,25.90
2023-02-15T15:12:26.966Z,25.10
2023-02-15T15:15:30.681Z,25.50
2023-02-15T15:18:45.656Z,25.50
2023-02-15T15:21:49.860Z,25.10
2023-02-15T15:24:38.421Z,26.23
2023-02-15T15:27:51.997Z,27.08
2023-02-15T15:30:37.458Z,27.52
2023-02-15T15:33:44.803Z,30.83
2023-02-15T15:36:39.694Z,30.42
2023-02-15T15:39:45.571Z,30.95
2023-02-15T15:42:39.958Z,29.83
2023-02-15T15:45:52.710Z,30.30
2023-02-15T15:48:39.971Z,29.08
2023-02-15T15:51:34.206Z,30.27
2023-02-15T15:54:25.424Z,30.85
2023-02-15T15:57:29.061Z,29.80
2023-02-15T16:00:35.600Z,28.85
2023-02-15T16:03:29.409Z,29.90
2023-02-15T16:06:15.751Z,29.52
2023-02-15T16:09:31.102Z,30.42
2023-02-15T16:12:21.346Z,30.02
2023-02-15T16:15:46.211Z,31.60
2023-02-15T16:18:33.056Z,33.40
2023-02-15T16:21:23.296Z,31.92
2023-02-15T16:24:35.717Z,31.25
2023-02-15T16:27:33.225Z,30.83
2023-02-15T16:30:28.117Z,32.83
2023-02-15T16:33:18.181Z,30.95
2023-02-15T16:36:05.686Z,31.63
2023-02-15T16:38:51.315Z,42.65
2023-02-15T16:41:38.732Z,39.15
2023-02-15T16:44:24.718Z,36.65
2023-02-15T16:47:18.934Z,36.40
2023-02-15T16:50:05.543Z,34.20
2023-02-15T16:52:52.870Z,34.15
2023-02-15T16:55:42.225Z,36.55
2023-02-15T16:58:30.464Z,37.25
2023-02-15T17:01:16.891Z,36.60
2023-02-15T17:04:21.095Z,36.60
2023-02-15T17:07:20.847Z,35.53
2023-02-15T17:10:37.875Z,40.60
2023-02-15T17:13:23.488Z,37.15
2023-02-15T17:16:28.216Z,35.92
2023-02-15T17:19:21.771Z,33.28
2023-02-15T17:22:07.875Z,29.05
2023-02-15T17:25:02.204Z,32.45
2023-02-15T17:27:53.773Z,30.90
2023-02-15T17:30:39.646Z,33.75
2023-02-15T17:33:36.324Z,35.15
2023-02-15T17:36:24.609Z,39.40
2023-02-15T17:39:23.465Z,43.30
2023-02-15T17:42:09.663Z,43.55
2023-02-15T17:44:55.329Z,42.00
2023-02-15T17:47:41.371Z,44.63
2023-02-15T17:50:28.535Z,45.08
2023-02-15T17:53:18.526Z,45.90
2023-02-15T17:56:10.793Z,42.10
2023-02-15T17:58:56.585Z,43.33
2023-02-15T18:02:07.868Z,40.90
2023-02-15T18:05:11.597Z,32.55
2023-02-15T18:08:15.742Z,37.85
2023-02-15T18:11:19.862Z,36.95
2023-02-15T18:14:10.399Z,33.80
2023-02-15T18:16:56.409Z,36.22
2023-02-15T18:19:43.955Z,35.92
2023-02-15T18:22:30.146Z,30.42
2023-02-15T18:25:17.622Z,30.75
2023-02-15T18:28:03.491Z,32.78
2023-02-15T18:30:49.313Z,29.92
2023-02-15T18:33:39.167Z,25.77
2023-02-15T18:36:27.973Z,27.27
2023-02-15T18:39:36.140Z,26.83
2023-02-15T18:42:27.934Z,26.17
2023-02-15T18:45:18.487Z,26.25
2023-02-15T18:48:04.444Z,27.40
2023-02-15T18:50:51.298Z,27.38
2023-02-15T18:53:36.777Z,27.10
2023-02-15T18:56:23.391Z,26.30
2023-02-15T18:59:17.420Z,27.85
2023-02-15T19:02:03.060Z,29.58
2023-02-15T19:04:48.543Z,29.30
2023-02-15T19:07:36.248Z,27.95
2023-02-15T19:10:24.888Z,26.60
2023-02-15T19:13:11.973Z,26.45
2023-02-15T19:15:58.847Z,24.27
2023-02-15T19:18:44.440Z,24.17
2023-02-15T19:21:32.442Z,23.45
2023-02-15T19:24:39.293Z,21.42
2023-02-15T19:27:31.775Z,20.17
2023-02-15T19:30:25.536Z,21.85
2023-02-15T19:33:17.771Z,21.77
2023-02-15T19:36:03.955Z,21.70
2023-02-15T19:38:54.433Z,32.80
2023-02-15T19:41:40.909Z,42.10
2023-02-15T19:44:26.506Z,41.70
2023-02-15T19:47:15.812Z,44.72
2023-02-15T19:50:03.593Z,45.23
2023-02-15T19:52:49.190Z,47.75
2023-02-15T19:55:35.260Z,48.30
2023-02-15T19:58:21.520Z,44.30
2023-02-15T20:01:07.463Z,44.58
2023-02-15T20:03:53.441Z,43.97
2023-02-15T20:06:39.266Z,39.60
2023-02-15T20:09:37.680Z,41.63
2023-02-15T20:12:25.949Z,40.08
2023-02-15T20:15:29.824Z,35.38
2023-02-15T20:18:15.505Z,27.13
2023-02-15T20:21:02.701Z,21.25
2023-02-15T20:23:48.725Z,23.23
2023-02-15T20:26:34.343Z,19.80
2023-02-15T20:29:19.955Z,26.85
2023-02-15T20:32:05.474Z,22.17
2023-02-15T20:34:50.899Z,22.55
2023-02-15T20:37:36.519Z,20.08
2023-02-15T20:40:25.175Z,18.05
2023-02-15T20:43:15.326Z,19.67
2023-02-15T20:46:01.863Z,18.13
2023-02-15T20:48:47.747Z,19.00
2023-02-15T20:51:33.367Z,18.92
2023-02-15T20:54:25.262Z,17.40
2023-02-15T20:57:12.657Z,17.30
2023-02-15T20:59:58.061Z,17.67
2023-02-15T21:02:43.759Z,16.58
2023-02-15T21:05:32.831Z,16.05
2023-02-15T21:08:21.325Z,14.10
2023-02-15T21:11:21.487Z,14.15
2023-02-15T21:14:19.828Z,13.00
2023-02-15T21:17:05.861Z,13.43
2023-02-15T21:19:51.683Z,14.73
2023-02-15T21:22:37.322Z,15.98
2023-02-15T21:25:29.131Z,14.02
2023-02-15T21:28:23.283Z,12.85
2023-02-15T21:31:17.061Z,15.63
2023-02-15T21:34:02.764Z,15.60
2023-02-15T21:36:50.788Z,17.20
2023-02-15T21:39:36.921Z,15.70
2023-02-15T21:42:40.879Z,18.25
2023-02-15T21:45:44.980Z,23.20
2023-02-15T21:48:30.563Z,22.05
2023-02-15T21:51:34.712Z,19.55
2023-02-15T21:54:21.532Z,18.17
2023-02-15T21:57:14.231Z,16.73
2023-02-15T21:59:59.738Z,15.85
2023-02-15T22:02:47.797Z,13.27
2023-02-15T22:05:34.520Z,13.63
2023-02-15T22:08:20.441Z,10.65
2023-02-15T22:11:15.050Z,11.95
2023-02-15T22:14:01.152Z,9.80
2023-02-15T22:16:46.503Z,11.00
2023-02-15T22:19:31.874Z,11.52
2023-02-15T22:22:18.239Z,9.77
2023-02-15T22:25:04.064Z,10.27
2023-02-15T22:27:51.753Z,11.02
2023-02-15T22:30:38.079Z,10.80
2023-02-15T22:33:29.429Z,10.70
2023-02-15T22:36:30.365Z,11.63
2023-02-15T22:39:15.814Z,10.68
2023-02-15T22:42:01.868Z,12.07
2023-02-15T22:44:48.453Z,11.02
2023-02-15T22:47:37.786Z,12.30
2023-02-15T22:50:26.495Z,11.68
2023-02-15T22:53:12.055Z,12.25
2023-02-15T22:56:01.864Z,12.88
2023-02-15T22:58:50.583Z,14.15
2023-02-15T23:01:38.064Z,13.82
2023-02-15T23:04:27.422Z,12.32
2023-02-15T23:07:15.111Z,12.13
2023-02-15T23:10:00.550Z,12.35
2023-02-15T23:13:04.661Z,12.20
2023-02-15T23:15:58.697Z,11.38
2023-02-15T23:18:46.775Z,12.50
2023-02-15T23:21:33.639Z,11.50
2023-02-15T23:24:27.643Z,11.68
2023-02-15T23:27:56.070Z,13.43
2023-02-15T23:30:41.891Z,10.85
2023-02-15T23:33:31.295Z,11.00
2023-02-15T23:36:26.326Z,12.30
2023-02-15T23:39:31.685Z,12.20
2023-02-15T23:42:20.548Z,11.48
2023-02-15T23:45:21.139Z,12.30
2023-02-15T23:51:16.972Z,12.60
2023-02-15T23:54:02.636Z,13.38
2023-02-15T23:56:51.202Z,13.57
2023-02-15T23:59:42.704Z,16.20
